createdAt,value
2018-01-03T00:00:06.168Z,46
2018-01-03T00:15:04.715Z,46
2018-01-03T00:30:05.424Z,46
2018-01-03T00:45:05.422Z,46
2018-01-03T01:00:04.996Z,46
2018-01-03T01:15:05.087Z,46
2018-01-03T01:30:06.430Z,47
2018-01-03T01:45:05.463Z,47
2018-01-03T02:00:06.286Z,46
2018-01-03T02:15:05.619Z,47
2018-01-03T02:30:11.692Z,46
2018-01-03T02:45:05.361Z,47
2018-01-03T03:00:08.236Z,46
2018-01-03T03:15:23.969Z,48
2018-01-03T03:30:08.486Z,47
2018-01-03T03:45:04.810Z,47
2018-01-03T04:00:04.625Z,47
2018-01-03T04:15:04.664Z,46
2018-01-03T04:30:04.862Z,47
2018-01-03T04:45:04.871Z,47
2018-01-03T05:00:04.642Z,47
2018-01-03T05:15:04.740Z,48
2018-01-03T05:30:05.442Z,47
2018-01-03T05:45:04.746Z,48
2018-01-03T06:00:04.636Z,50
2018-01-03T06:15:04.561Z,49
2018-01-03T06:30:04.695Z,50
2018-01-03T06:45:04.567Z,49
2018-01-03T07:00:05.123Z,50
2018-01-03T07:15:04.552Z,49
2018-01-03T07:30:04.760Z,51
2018-01-03T07:45:15.045Z,50
2018-01-03T08:00:04.538Z,49
2018-01-03T08:15:04.380Z,49
2018-01-03T08:30:05.496Z,49
2018-01-03T08:45:04.926Z,49
2018-01-03T09:00:04.281Z,50
2018-01-03T09:15:05.300Z,49
2018-01-03T09:30:20.602Z,50
2018-01-03T09:45:05.033Z,50
2018-01-03T10:00:05.475Z,49
2018-01-03T10:15:08.036Z,48
2018-01-03T10:30:04.623Z,48
2018-01-03T10:45:04.566Z,48
2018-01-03T11:00:04.993Z,48
2018-01-03T11:15:04.875Z,47
2018-01-03T11:30:06.148Z,45
2018-01-03T11:45:20.466Z,44
2018-01-03T12:00:08.054Z,44
2018-01-03T12:15:04.522Z,44
2018-01-03T12:30:05.158Z,44
2018-01-03T12:45:04.637Z,46
2018-01-03T13:00:08.198Z,44
2018-01-03T13:15:05.585Z,47
2018-01-03T13:30:06.214Z,45
2018-01-03T13:45:06.189Z,47
2018-01-03T14:00:05.568Z,46
2018-01-03T14:15:07.649Z,47
2018-01-03T14:30:07.928Z,47
2018-01-03T14:45:05.273Z,45
2018-01-03T15:00:06.241Z,45
2018-01-03T15:15:04.798Z,47
2018-01-03T15:30:05.497Z,46
2018-01-03T15:45:04.918Z,47
2018-01-03T16:00:06.087Z,47
2018-01-03T16:15:04.557Z,47
2018-01-03T16:30:05.309Z,47
2018-01-03T16:45:04.850Z,47
2018-01-03T17:00:04.397Z,47
2018-01-03T17:15:05.864Z,47
2018-01-03T17:30:05.585Z,47
2018-01-03T17:45:06.106Z,46
2018-01-03T18:00:11.464Z,51
2018-01-03T18:15:13.269Z,48
2018-01-03T18:30:05.067Z,47
2018-01-03T18:45:05.983Z,46
2018-01-03T19:00:05.027Z,47
2018-01-03T19:15:05.737Z,47
2018-01-03T19:30:07.723Z,47
2018-01-03T19:45:05.329Z,46
2018-01-03T20:00:04.817Z,46
2018-01-03T20:15:06.558Z,46
2018-01-03T20:30:06.080Z,46
2018-01-03T20:45:08.403Z,46
2018-01-03T21:00:05.746Z,45
2018-01-03T21:15:04.980Z,46
2018-01-03T21:30:04.651Z,45
2018-01-03T21:45:06.205Z,46
2018-01-03T22:00:05.072Z,46
2018-01-03T22:15:05.284Z,48
2018-01-03T22:30:04.557Z,47
2018-01-03T22:45:04.599Z,47
2018-01-03T23:00:08.384Z,48
2018-01-03T23:15:05.143Z,46
2018-01-03T23:30:05.053Z,46
2018-01-03T23:45:06.216Z,46
